createdAt,value
2023-05-22T00:01:39.418Z,13.80
2023-05-22T00:05:43.077Z,13.80
2023-05-22T00:09:47.969Z,13.80
2023-05-22T00:13:51.607Z,13.70
2023-05-22T00:17:55.403Z,13.70
2023-05-22T00:21:58.948Z,13.60
2023-05-22T00:26:04.463Z,13.60
2023-05-22T00:30:09.687Z,13.60
2023-05-22T00:34:13.197Z,13.60
2023-05-22T00:38:30.665Z,13.60
2023-05-22T00:42:35.563Z,13.60
2023-05-22T00:46:39.365Z,13.60
2023-05-22T00:50:43.178Z,13.50
2023-05-22T00:54:48.023Z,13.50
2023-05-22T00:58:52.960Z,13.50
2023-05-22T01:02:57.088Z,13.50
2023-05-22T01:07:03.123Z,13.50
2023-05-22T01:11:12.956Z,13.50
2023-05-22T01:15:25.467Z,13.50
2023-05-22T01:19:50.701Z,13.50
2023-05-22T01:24:28.131Z,13.40
2023-05-22T01:28:42.705Z,13.40
2023-05-22T01:32:49.238Z,13.30
2023-05-22T01:36:54.589Z,13.30
2023-05-22T01:40:58.992Z,13.30
2023-05-22T01:45:03.055Z,13.30
2023-05-22T01:49:09.212Z,13.20
2023-05-22T01:53:19.926Z,13.20
2023-05-22T01:57:30.049Z,13.20
2023-05-22T02:01:36.036Z,13.20
2023-05-22T02:05:42.120Z,13.10
2023-05-22T02:09:47.648Z,13.10
2023-05-22T02:13:51.510Z,13.10
2023-05-22T02:17:55.092Z,13.00
2023-05-22T02:22:00.209Z,13.00
2023-05-22T02:26:03.718Z,12.90
2023-05-22T02:30:08.821Z,12.90
2023-05-22T02:34:12.263Z,12.90
2023-05-22T02:38:17.300Z,12.90
2023-05-22T02:42:21.573Z,12.90
2023-05-22T02:46:25.363Z,12.80
2023-05-22T02:50:29.436Z,12.80
2023-05-22T02:54:34.480Z,12.80
2023-05-22T02:58:38.169Z,12.70
2023-05-22T03:02:43.703Z,12.70
2023-05-22T03:06:47.218Z,12.60
2023-05-22T03:10:52.176Z,12.60
2023-05-22T03:14:55.617Z,12.60
2023-05-22T03:19:09.659Z,12.70
2023-05-22T03:23:13.851Z,12.90
2023-05-22T03:27:19.852Z,13.20
2023-05-22T03:31:26.293Z,13.60
2023-05-22T03:35:40.057Z,14.20
2023-05-22T03:39:43.724Z,14.90
2023-05-22T03:44:14.419Z,15.70
2023-05-22T03:48:19.189Z,16.50
2023-05-22T03:52:23.653Z,17.20
2023-05-22T03:56:27.249Z,18.00
2023-05-22T04:00:32.102Z,18.70
2023-05-22T04:04:38.687Z,19.40
2023-05-22T04:08:42.443Z,20.10
2023-05-22T04:12:46.150Z,21.00
2023-05-22T04:16:51.592Z,22.20
2023-05-22T04:20:55.234Z,23.50
2023-05-22T04:25:00.358Z,24.70
2023-05-22T04:29:03.984Z,25.90
2023-05-22T04:33:10.776Z,26.80
2023-05-22T04:37:15.266Z,27.00
2023-05-22T04:41:21.209Z,27.50
2023-05-22T04:45:29.094Z,28.80
2023-05-22T04:49:36.446Z,30.00
2023-05-22T04:53:39.925Z,30.40
2023-05-22T04:57:45.372Z,30.90
2023-05-22T05:01:50.574Z,30.60
2023-05-22T05:05:56.914Z,30.60
2023-05-22T05:10:01.069Z,30.90
2023-05-22T05:14:04.705Z,31.40
2023-05-22T05:18:09.348Z,31.20
2023-05-22T05:22:15.405Z,30.50
2023-05-22T05:26:19.378Z,28.90
2023-05-22T05:30:23.319Z,28.10
2023-05-22T05:34:45.576Z,28.80
2023-05-22T05:39:13.894Z,30.30
2023-05-22T05:43:17.676Z,31.60
2023-05-22T05:47:24.135Z,30.40
2023-05-22T05:51:31.253Z,29.00
2023-05-22T05:55:36.659Z,28.30
2023-05-22T05:59:41.086Z,28.50
2023-05-22T06:04:17.201Z,27.50
2023-05-22T06:08:28.405Z,24.90
2023-05-22T06:12:33.810Z,23.10
2023-05-22T06:16:37.406Z,21.70
2023-05-22T06:20:41.322Z,20.50
2023-05-22T06:24:45.070Z,20.40
2023-05-22T06:28:54.626Z,20.10
2023-05-22T06:33:00.495Z,20.50
2023-05-22T06:37:04.694Z,20.10
2023-05-22T06:41:15.129Z,20.40
2023-05-22T06:45:20.323Z,20.30
2023-05-22T06:49:44.040Z,19.80
2023-05-22T06:53:48.060Z,19.40
2023-05-22T06:57:57.591Z,19.10
2023-05-22T07:02:04.975Z,18.90
2023-05-22T07:06:28.862Z,18.80
2023-05-22T07:10:32.422Z,19.00
2023-05-22T07:14:36.355Z,19.10
2023-05-22T07:18:42.109Z,18.80
2023-05-22T07:22:45.583Z,18.90
2023-05-22T07:26:49.901Z,18.90
2023-05-22T07:30:54.151Z,19.00
2023-05-22T07:35:00.534Z,19.00
2023-05-22T07:39:05.226Z,19.40
2023-05-22T07:43:12.833Z,19.20
2023-05-22T07:47:17.097Z,19.30
2023-05-22T07:51:22.157Z,19.60
2023-05-22T07:55:28.006Z,19.80
2023-05-22T07:59:33.828Z,19.80
2023-05-22T08:03:37.739Z,19.90
2023-05-22T08:07:42.829Z,19.90
2023-05-22T08:11:46.445Z,20.40
2023-05-22T08:15:49.853Z,20.30
2023-05-22T08:19:53.762Z,20.40
2023-05-22T08:23:59.031Z,20.50
2023-05-22T08:28:02.524Z,20.50
2023-05-22T08:32:06.905Z,20.40
2023-05-22T08:36:10.467Z,20.40
2023-05-22T08:40:16.493Z,20.50
2023-05-22T08:44:21.169Z,20.60
2023-05-22T08:48:26.002Z,20.90
2023-05-22T08:52:34.480Z,21.00
2023-05-22T08:56:53.005Z,21.00
2023-05-22T09:01:00.858Z,20.90
2023-05-22T09:05:05.533Z,20.80
2023-05-22T09:09:10.715Z,21.10
2023-05-22T09:13:26.846Z,21.40
2023-05-22T09:17:30.481Z,21.30
2023-05-22T09:21:34.160Z,21.40
2023-05-22T09:25:37.765Z,21.60
2023-05-22T09:29:53.769Z,22.00
2023-05-22T09:33:57.533Z,22.00
2023-05-22T09:38:01.439Z,21.70
2023-05-22T09:42:06.270Z,21.90
2023-05-22T09:46:11.358Z,22.00
2023-05-22T09:50:14.805Z,22.00
2023-05-22T09:54:20.250Z,22.20
2023-05-22T09:58:27.272Z,22.40
2023-05-22T10:02:33.827Z,22.70
2023-05-22T10:06:38.525Z,22.70
2023-05-22T10:10:46.921Z,22.80
2023-05-22T10:14:50.569Z,22.90
2023-05-22T10:18:56.439Z,22.90
2023-05-22T10:23:04.148Z,22.70
2023-05-22T10:27:07.851Z,22.60
2023-05-22T10:31:26.593Z,22.80
2023-05-22T10:36:02.662Z,22.90
2023-05-22T10:40:11.026Z,23.00
2023-05-22T10:44:14.744Z,23.10
2023-05-22T10:48:23.482Z,23.30
2023-05-22T10:52:28.676Z,23.50
2023-05-22T10:56:37.029Z,23.70
2023-05-22T11:00:41.329Z,23.90
2023-05-22T11:04:45.055Z,24.00
2023-05-22T11:08:51.611Z,24.10
2023-05-22T11:13:04.735Z,24.10
2023-05-22T11:17:08.392Z,24.00
2023-05-22T11:21:13.808Z,23.50
2023-05-22T11:25:21.495Z,23.10
2023-05-22T11:29:25.832Z,22.90
2023-05-22T11:33:29.785Z,22.60
2023-05-22T11:37:33.727Z,22.80
2023-05-22T11:41:38.764Z,22.60
2023-05-22T11:45:42.233Z,22.70
2023-05-22T11:49:46.127Z,22.80
2023-05-22T11:53:49.916Z,23.20
2023-05-22T11:57:56.818Z,23.30
2023-05-22T12:02:00.530Z,23.50
2023-05-22T12:06:04.432Z,23.30
2023-05-22T12:10:08.540Z,23.10
2023-05-22T12:14:13.656Z,23.10
2023-05-22T12:18:19.965Z,23.00
2023-05-22T12:22:26.447Z,23.20
2023-05-22T12:26:30.105Z,23.60
2023-05-22T12:30:43.119Z,23.80
2023-05-22T12:34:47.978Z,23.50
2023-05-22T12:38:52.020Z,23.40
2023-05-22T12:42:55.552Z,23.40
2023-05-22T12:47:00.563Z,23.40
2023-05-22T12:51:04.006Z,23.40
2023-05-22T12:55:08.782Z,23.10
2023-05-22T12:59:12.194Z,23.30
2023-05-22T13:03:18.369Z,23.80
2023-05-22T13:07:21.942Z,24.20
2023-05-22T13:11:26.755Z,24.40
2023-05-22T13:15:31.603Z,24.60
2023-05-22T13:19:36.715Z,24.90
2023-05-22T13:23:40.517Z,25.00
2023-05-22T13:27:44.025Z,25.10
2023-05-22T13:31:47.728Z,24.90
2023-05-22T13:35:52.755Z,24.60
2023-05-22T13:39:56.478Z,24.40
2023-05-22T13:43:59.929Z,24.00
2023-05-22T13:48:03.735Z,24.00
2023-05-22T13:52:08.810Z,24.10
2023-05-22T13:56:12.278Z,24.60
2023-05-22T14:00:16.565Z,24.90
2023-05-22T14:04:21.221Z,25.30
2023-05-22T14:08:26.387Z,25.50
2023-05-22T14:12:30.051Z,25.40
2023-05-22T14:16:33.525Z,25.20
2023-05-22T14:20:37.086Z,25.00
2023-05-22T14:24:42.135Z,24.70
2023-05-22T14:28:45.643Z,24.60
2023-05-22T14:32:49.202Z,24.70
2023-05-22T14:36:52.616Z,24.80
2023-05-22T14:40:57.531Z,25.10
2023-05-22T14:45:00.952Z,25.20
2023-05-22T14:49:04.843Z,25.30
2023-05-22T14:53:08.333Z,25.20
2023-05-22T14:57:14.300Z,25.30
2023-05-22T15:01:17.926Z,25.40
2023-05-22T15:05:22.914Z,25.30
2023-05-22T15:09:26.679Z,24.60
2023-05-22T15:13:31.792Z,23.70
2023-05-22T15:17:35.407Z,23.50
2023-05-22T15:21:39.049Z,23.40
2023-05-22T15:25:43.730Z,23.30
2023-05-22T15:29:48.641Z,23.30
2023-05-22T15:33:52.263Z,23.20
2023-05-22T15:37:55.686Z,23.20
2023-05-22T15:42:06.283Z,23.00
2023-05-22T15:46:14.738Z,23.00
2023-05-22T15:50:18.419Z,23.10
2023-05-22T15:54:21.840Z,23.10
2023-05-22T15:58:25.598Z,23.20
2023-05-22T16:02:30.586Z,23.40
2023-05-22T16:06:34.199Z,23.50
2023-05-22T16:10:37.944Z,23.10
2023-05-22T16:14:41.954Z,22.80
2023-05-22T16:18:47.010Z,22.80
2023-05-22T16:22:50.580Z,22.90
2023-05-22T16:26:54.298Z,22.60
2023-05-22T16:30:57.790Z,22.70
2023-05-22T16:35:02.995Z,22.80
2023-05-22T16:39:06.650Z,23.00
2023-05-22T16:43:11.437Z,23.10
2023-05-22T16:47:15.009Z,23.00
2023-05-22T16:51:20.180Z,22.60
2023-05-22T16:55:23.722Z,22.60
2023-05-22T16:59:27.403Z,22.60
2023-05-22T17:03:30.930Z,22.60
2023-05-22T17:07:36.189Z,22.40
2023-05-22T17:11:39.730Z,22.30
2023-05-22T17:15:43.475Z,21.90
2023-05-22T17:19:47.478Z,21.70
2023-05-22T17:23:52.483Z,21.70
2023-05-22T17:27:56.870Z,21.60
2023-05-22T17:32:00.581Z,21.50
2023-05-22T17:36:04.262Z,21.40
2023-05-22T17:40:10.995Z,21.20
2023-05-22T17:44:14.476Z,20.90
2023-05-22T17:48:21.670Z,20.70
2023-05-22T17:52:25.328Z,20.60
2023-05-22T17:56:30.401Z,20.50
2023-05-22T18:00:34.033Z,20.40
2023-05-22T18:04:38.064Z,20.20
2023-05-22T18:08:41.475Z,20.20
2023-05-22T18:12:46.697Z,20.10
2023-05-22T18:16:50.386Z,20.00
2023-05-22T18:20:53.957Z,19.80
2023-05-22T18:24:57.849Z,19.70
2023-05-22T18:29:02.955Z,19.70
2023-05-22T18:33:06.483Z,19.50
2023-05-22T18:37:10.073Z,19.40
2023-05-22T18:41:13.778Z,19.10
2023-05-22T18:45:18.864Z,18.80
2023-05-22T18:49:22.559Z,18.60
2023-05-22T18:53:27.446Z,18.60
2023-05-22T18:57:30.980Z,18.50
2023-05-22T19:01:37.252Z,18.50
2023-05-22T19:05:41.255Z,18.50
2023-05-22T19:09:44.719Z,18.50
2023-05-22T19:13:48.858Z,18.50
2023-05-22T19:17:54.251Z,18.40
2023-05-22T19:21:57.893Z,18.30
2023-05-22T19:26:01.621Z,18.30
2023-05-22T19:30:05.839Z,18.20
2023-05-22T19:34:10.852Z,18.20
2023-05-22T19:38:14.398Z,18.10
2023-05-22T19:42:18.084Z,17.90
2023-05-22T19:46:22.488Z,17.80
2023-05-22T19:50:27.827Z,17.80
2023-05-22T19:54:31.421Z,17.80
2023-05-22T19:58:35.087Z,17.70
2023-05-22T20:02:38.673Z,17.70
2023-05-22T20:06:45.362Z,17.60
2023-05-22T20:10:49.072Z,17.50
2023-05-22T20:14:55.150Z,17.40
2023-05-22T20:18:59.768Z,17.30
2023-05-22T20:23:04.910Z,17.20
2023-05-22T20:27:08.509Z,17.20
2023-05-22T20:31:11.974Z,17.20
2023-05-22T20:35:18.915Z,17.20
2023-05-22T20:39:23.979Z,17.10
2023-05-22T20:43:30.195Z,17.00
2023-05-22T20:47:35.305Z,17.10
2023-05-22T20:51:39.888Z,17.00
2023-05-22T20:55:44.769Z,17.00
2023-05-22T20:59:48.437Z,16.90
2023-05-22T21:03:52.227Z,16.80
2023-05-22T21:07:56.102Z,16.80
2023-05-22T21:12:01.125Z,16.80
2023-05-22T21:16:04.747Z,16.80
2023-05-22T21:20:09.055Z,16.80
2023-05-22T21:24:12.814Z,16.80
2023-05-22T21:28:17.968Z,16.70
2023-05-22T21:32:21.504Z,16.70
2023-05-22T21:36:25.224Z,16.60
2023-05-22T21:40:28.737Z,16.60
2023-05-22T21:44:34.026Z,16.60
2023-05-22T21:48:37.619Z,16.50
2023-05-22T21:52:41.085Z,16.50
2023-05-22T21:56:44.619Z,16.50
2023-05-22T22:00:49.515Z,16.50
2023-05-22T22:04:53.174Z,16.40
2023-05-22T22:08:58.908Z,16.40
2023-05-22T22:13:03.697Z,16.30
2023-05-22T22:17:09.372Z,16.30
2023-05-22T22:21:12.905Z,16.30
2023-05-22T22:25:17.487Z,16.20
2023-05-22T22:29:21.040Z,16.20
2023-05-22T22:33:26.382Z,16.10
2023-05-22T22:37:29.828Z,16.10
2023-05-22T22:41:33.473Z,16.00
2023-05-22T22:45:37.051Z,16.00
2023-05-22T22:49:42.508Z,15.90
2023-05-22T22:53:46.060Z,15.90
2023-05-22T22:57:51.204Z,15.90
2023-05-22T23:01:54.770Z,15.90
2023-05-22T23:05:59.818Z,15.80
2023-05-22T23:10:03.363Z,15.80
2023-05-22T23:14:08.476Z,15.70
2023-05-22T23:18:14.113Z,15.70
2023-05-22T23:22:19.391Z,15.60
2023-05-22T23:26:23.033Z,15.50
2023-05-22T23:30:26.477Z,15.40
2023-05-22T23:34:30.051Z,15.30
2023-05-22T23:38:34.956Z,15.30
2023-05-22T23:42:39.650Z,15.10
2023-05-22T23:46:44.058Z,15.10
2023-05-22T23:50:47.653Z,15.00
2023-05-22T23:54:52.572Z,15.00
2023-05-22T23:58:56.395Z,15.00
